KFHR/FHR METAR and TAF weather

Enter ICAO airport designator
Station Type Date Time Source
KFHR METAR 2023/02/04 02:53 UTC NOAA

KFHR 040253Z AUTO 15010G18KT 10SM -RA 08/05 A2986 RMK AO2 RAB40B45 SLP113 P0000 60000 T00780050 $


Station Type Date Time Source
KFHR Decoded METAR 2023/02/04 02:53 UTC NOAA

FRIDAY HARBOR AIRPORT, WA, United States (KFHR) 48-31N 123-02W 32M
Feb 03, 2023 - 09:53 PM EST / 2023.02.04 0253 UTC
Wind: from the SSE (150 degrees) at 12 MPH (10 KT) gusting to 21 MPH (18 KT):0
Visibility: 10 mile(s):0
Weather: light rain
Precipitation last hour: A trace
Temperature: 46.0 F (7.8 C)
Dew Point: 41.0 F (5.0 C)
Relative Humidity: 82%
Pressure (altimeter): 29.86 in. Hg (1011 hPa)
ob: KFHR 040253Z AUTO 15010G18KT 10SM -RA 08/05 A2986 RMK AO2 RAB40B45 SLP113 P0000 60000 T00780050
cycle: 3

Station Type Date Time Source
KFHR TAF UTC NOAA

Error!

Example: see airport list